Terminal Aerodrome Forecast
Issued by NWS Pendleton, OR

Home | Current Version | Previous Version | Text Only | Print | Product List | Glossary On
Versions: 1 2 3 4 5 6 7 8 9 10 11 12 13 14
000
FTUS46 KPDT 291629 AAC
TAFPDT
TAF AMD
KPDT 291629Z 2916/3012 18009KT P6SM -RA OVC040
     FM291700 19008KT 5SM -RA BR OVC030
     FM292300 21010KT 6SM -RA BR OVC040
     FM300800 25012KT P6SM -SHRA OVC050=

USA.gov is the U.S. government's official web portal to all federal, state and local government web resources and services.